sensor_id;sensor_type;location;lat;lon;timestamp;P1;durP1;ratioP1;P2;durP2;ratioP2
11173;SDS011;5643;50.856;12.088;2023-04-07T00:17:14;8.40;;;7.60;;
11173;SDS011;5643;50.856;12.088;2023-04-07T00:22:30;7.90;;;7.20;;
11173;SDS011;5643;50.856;12.088;2023-04-07T00:24:58;8.27;;;7.50;;
11173;SDS011;5643;50.856;12.088;2023-04-07T00:27:25;8.03;;;7.33;;
11173;SDS011;5643;50.856;12.088;2023-04-07T00:29:52;7.47;;;6.83;;
11173;SDS011;5643;50.856;12.088;2023-04-07T00:32:21;8.10;;;7.40;;
11173;SDS011;5643;50.856;12.088;2023-04-07T00:34:48;8.33;;;7.57;;
11173;SDS011;5643;50.856;12.088;2023-04-07T00:37:16;8.47;;;7.67;;
11173;SDS011;5643;50.856;12.088;2023-04-07T00:39:43;8.73;;;7.93;;
11173;SDS011;5643;50.856;12.088;2023-04-07T00:42:10;8.60;;;7.80;;
11173;SDS011;5643;50.856;12.088;2023-04-07T00:44:38;8.20;;;7.43;;
11173;SDS011;5643;50.856;12.088;2023-04-07T00:47:05;8.57;;;7.77;;
11173;SDS011;5643;50.856;12.088;2023-04-07T00:49:33;8.37;;;7.60;;
11173;SDS011;5643;50.856;12.088;2023-04-07T00:52:01;9.03;;;8.13;;
11173;SDS011;5643;50.856;12.088;2023-04-07T00:54:29;8.40;;;7.60;;
11173;SDS011;5643;50.856;12.088;2023-04-07T00:56:56;8.90;;;8.00;;
11173;SDS011;5643;50.856;12.088;2023-04-07T00:59:23;8.70;;;7.90;;
11173;SDS011;5643;50.856;12.088;2023-04-07T01:01:54;7.80;;;7.10;;
11173;SDS011;5643;50.856;12.088;2023-04-07T01:04:25;8.00;;;7.20;;
11173;SDS011;5643;50.856;12.088;2023-04-07T01:06:58;7.60;;;6.90;;
11173;SDS011;5643;50.856;12.088;2023-04-07T01:09:29;7.37;;;6.77;;
11173;SDS011;5643;50.856;12.088;2023-04-07T01:11:58;7.03;;;6.33;;
11173;SDS011;5643;50.856;12.088;2023-04-07T01:14:31;7.40;;;6.70;;
11173;SDS011;5643;50.856;12.088;2023-04-07T01:17:01;7.60;;;7.00;;
11173;SDS011;5643;50.856;12.088;2023-04-07T01:19:31;7.40;;;6.70;;
11173;SDS011;5643;50.856;12.088;2023-04-07T01:22:01;7.13;;;6.43;;
11173;SDS011;5643;50.856;12.088;2023-04-07T01:27:18;7.20;;;6.50;;
11173;SDS011;5643;50.856;12.088;2023-04-07T01:29:49;6.90;;;6.27;;
11173;SDS011;5643;50.856;12.088;2023-04-07T01:32:16;7.20;;;6.50;;
11173;SDS011;5643;50.856;12.088;2023-04-07T01:34:44;7.23;;;6.63;;
11173;SDS011;5643;50.856;12.088;2023-04-07T01:37:13;7.33;;;6.63;;
11173;SDS011;5643;50.856;12.088;2023-04-07T01:39:41;7.13;;;6.53;;
11173;SDS011;5643;50.856;12.088;2023-04-07T01:42:08;6.50;;;5.90;;
11173;SDS011;5643;50.856;12.088;2023-04-07T01:44:36;7.10;;;6.50;;
11173;SDS011;5643;50.856;12.088;2023-04-07T01:47:05;7.17;;;6.57;;
11173;SDS011;5643;50.856;12.088;2023-04-07T01:49:32;7.63;;;6.83;;
11173;SDS011;5643;50.856;12.088;2023-04-07T01:52:01;7.83;;;7.13;;
11173;SDS011;5643;50.856;12.088;2023-04-07T01:54:31;8.13;;;6.83;;
11173;SDS011;5643;50.856;12.088;2023-04-07T01:56:58;6.77;;;6.17;;
11173;SDS011;5643;50.856;12.088;2023-04-07T01:59:26;7.80;;;6.83;;
11173;SDS011;5643;50.856;12.088;2023-04-07T02:01:53;7.80;;;7.10;;
11173;SDS011;5643;50.856;12.088;2023-04-07T02:04:24;7.00;;;6.40;;
11173;SDS011;5643;50.856;12.088;2023-04-07T02:06:53;7.07;;;6.43;;
11173;SDS011;5643;50.856;12.088;2023-04-07T02:09:21;7.23;;;6.63;;
11173;SDS011;5643;50.856;12.088;2023-04-07T02:11:50;7.13;;;6.53;;
11173;SDS011;5643;50.856;12.088;2023-04-07T02:14:18;7.60;;;6.93;;
11173;SDS011;5643;50.856;12.088;2023-04-07T03:17:37;7.30;;;6.70;;
11173;SDS011;5643;50.856;12.088;2023-04-07T03:20:05;7.20;;;6.60;;
11173;SDS011;5643;50.856;12.088;2023-04-07T03:22:33;6.70;;;6.07;;
11173;SDS011;5643;50.856;12.088;2023-04-07T03:25:02;7.10;;;6.40;;
11173;SDS011;5643;50.856;12.088;2023-04-07T03:27:30;6.40;;;5.80;;
11173;SDS011;5643;50.856;12.088;2023-04-07T06:18:33;7.63;;;7.03;;
11173;SDS011;5643;50.856;12.088;2023-04-07T06:21:01;7.20;;;6.60;;
11173;SDS011;5643;50.856;12.088;2023-04-07T06:23:28;7.80;;;7.10;;
11173;SDS011;5643;50.856;12.088;2023-04-07T06:25:55;6.70;;;6.20;;
11173;SDS011;5643;50.856;12.088;2023-04-07T06:28:22;7.03;;;6.37;;
11173;SDS011;5643;50.856;12.088;2023-04-07T06:30:49;6.63;;;6.13;;
11173;SDS011;5643;50.856;12.088;2023-04-07T06:33:16;6.43;;;5.93;;
11173;SDS011;5643;50.856;12.088;2023-04-07T06:35:45;6.27;;;5.67;;
11173;SDS011;5643;50.856;12.088;2023-04-07T06:38:13;7.27;;;6.57;;
11173;SDS011;5643;50.856;12.088;2023-04-07T06:40:40;7.20;;;6.60;;
11173;SDS011;5643;50.856;12.088;2023-04-07T06:43:09;7.53;;;6.90;;
11173;SDS011;5643;50.856;12.088;2023-04-07T06:45:53;7.60;;;6.90;;
11173;SDS011;5643;50.856;12.088;2023-04-07T06:48:24;7.97;;;7.17;;
11173;SDS011;5643;50.856;12.088;2023-04-07T06:50:53;7.43;;;6.80;;
11173;SDS011;5643;50.856;12.088;2023-04-07T06:53:21;7.87;;;7.27;;
11173;SDS011;5643;50.856;12.088;2023-04-07T06:55:49;8.20;;;7.40;;
11173;SDS011;5643;50.856;12.088;2023-04-07T06:58:17;8.17;;;7.47;;
11173;SDS011;5643;50.856;12.088;2023-04-07T07:00:44;7.63;;;7.03;;
11173;SDS011;5643;50.856;12.088;2023-04-07T07:03:11;7.60;;;7.00;;
11173;SDS011;5643;50.856;12.088;2023-04-07T07:05:38;7.90;;;7.20;;
11173;SDS011;5643;50.856;12.088;2023-04-07T07:08:07;7.10;;;6.50;;
11173;SDS011;5643;50.856;12.088;2023-04-07T07:10:34;6.43;;;5.93;;
11173;SDS011;5643;50.856;12.088;2023-04-07T07:13:02;6.50;;;6.00;;
11173;SDS011;5643;50.856;12.088;2023-04-07T07:15:29;6.27;;;5.77;;
11173;SDS011;5643;50.856;12.088;2023-04-07T07:17:56;6.17;;;5.57;;
11173;SDS011;5643;50.856;12.088;2023-04-07T07:20:24;7.03;;;6.43;;
11173;SDS011;5643;50.856;12.088;2023-04-07T07:22:54;6.43;;;5.93;;
11173;SDS011;5643;50.856;12.088;2023-04-07T07:25:24;6.33;;;5.83;;
11173;SDS011;5643;50.856;12.088;2023-04-07T07:27:52;6.20;;;5.70;;
11173;SDS011;5643;50.856;12.088;2023-04-07T07:30:20;6.57;;;6.00;;
11173;SDS011;5643;50.856;12.088;2023-04-07T07:32:47;6.03;;;5.53;;
11173;SDS011;5643;50.856;12.088;2023-04-07T07:35:14;7.50;;;6.80;;
11173;SDS011;5643;50.856;12.088;2023-04-07T07:37:42;6.37;;;5.87;;
11173;SDS011;5643;50.856;12.088;2023-04-07T07:40:10;5.77;;;5.33;;
11173;SDS011;5643;50.856;12.088;2023-04-07T07:42:40;6.07;;;5.57;;
11173;SDS011;5643;50.856;12.088;2023-04-07T07:45:07;5.83;;;5.33;;
11173;SDS011;5643;50.856;12.088;2023-04-07T07:47:35;5.93;;;5.43;;
11173;SDS011;5643;50.856;12.088;2023-04-07T07:50:02;6.10;;;5.60;;
11173;SDS011;5643;50.856;12.088;2023-04-07T07:52:30;6.60;;;6.10;;
11173;SDS011;5643;50.856;12.088;2023-04-07T07:54:57;7.50;;;6.90;;
11173;SDS011;5643;50.856;12.088;2023-04-07T07:57:25;6.67;;;6.07;;
11173;SDS011;5643;50.856;12.088;2023-04-07T07:59:53;6.60;;;5.93;;
11173;SDS011;5643;50.856;12.088;2023-04-07T08:02:21;6.00;;;5.40;;
11173;SDS011;5643;50.856;12.088;2023-04-07T08:04:54;5.53;;;5.07;;
11173;SDS011;5643;50.856;12.088;2023-04-07T08:07:21;7.77;;;7.10;;
11173;SDS011;5643;50.856;12.088;2023-04-07T08:09:49;7.93;;;7.13;;
11173;SDS011;5643;50.856;12.088;2023-04-07T08:12:16;7.10;;;6.40;;
11173;SDS011;5643;50.856;12.088;2023-04-07T08:14:44;6.07;;;5.57;;
11173;SDS011;5643;50.856;12.088;2023-04-07T08:17:13;5.07;;;4.67;;
11173;SDS011;5643;50.856;12.088;2023-04-07T09:20:59;7.50;;;6.80;;
11173;SDS011;5643;50.856;12.088;2023-04-07T09:23:35;6.03;;;5.50;;
11173;SDS011;5643;50.856;12.088;2023-04-07T09:26:19;8.13;;;7.33;;
11173;SDS011;5643;50.856;12.088;2023-04-07T09:28:48;8.90;;;8.17;;
11173;SDS011;5643;50.856;12.088;2023-04-07T09:31:16;8.23;;;7.43;;
11173;SDS011;5643;50.856;12.088;2023-04-07T09:33:44;7.93;;;7.20;;
11173;SDS011;5643;50.856;12.088;2023-04-07T09:36:13;8.10;;;7.30;;
11173;SDS011;5643;50.856;12.088;2023-04-07T09:38:40;8.20;;;7.40;;
11173;SDS011;5643;50.856;12.088;2023-04-07T09:41:08;8.20;;;7.47;;
11173;SDS011;5643;50.856;12.088;2023-04-07T09:43:36;9.30;;;8.40;;
11173;SDS011;5643;50.856;12.088;2023-04-07T09:46:07;8.17;;;7.47;;
11173;SDS011;5643;50.856;12.088;2023-04-07T09:48:35;6.90;;;6.30;;
11173;SDS011;5643;50.856;12.088;2023-04-07T09:51:05;6.93;;;6.33;;
11173;SDS011;5643;50.856;12.088;2023-04-07T09:53:43;7.87;;;7.17;;
11173;SDS011;5643;50.856;12.088;2023-04-07T09:56:10;7.47;;;6.77;;
11173;SDS011;5643;50.856;12.088;2023-04-07T09:58:38;7.20;;;6.50;;
11173;SDS011;5643;50.856;12.088;2023-04-07T10:01:06;6.80;;;6.20;;
11173;SDS011;5643;50.856;12.088;2023-04-07T10:03:34;7.20;;;6.60;;
11173;SDS011;5643;50.856;12.088;2023-04-07T10:06:05;7.30;;;6.60;;
11173;SDS011;5643;50.856;12.088;2023-04-07T10:08:40;8.27;;;7.50;;
11173;SDS011;5643;50.856;12.088;2023-04-07T10:11:11;8.43;;;7.70;;
11173;SDS011;5643;50.856;12.088;2023-04-07T10:13:43;8.50;;;7.60;;
11173;SDS011;5643;50.856;12.088;2023-04-07T10:16:13;6.90;;;6.30;;
11173;SDS011;5643;50.856;12.088;2023-04-07T10:18:41;7.27;;;6.57;;
11173;SDS011;5643;50.856;12.088;2023-04-07T11:22:18;5.80;;;5.30;;
11173;SDS011;5643;50.856;12.088;2023-04-07T11:24:45;5.30;;;4.80;;
11173;SDS011;5643;50.856;12.088;2023-04-07T11:27:13;6.37;;;5.77;;
11173;SDS011;5643;50.856;12.088;2023-04-07T11:29:41;5.57;;;5.03;;
11173;SDS011;5643;50.856;12.088;2023-04-07T11:32:09;5.50;;;5.00;;
11173;SDS011;5643;50.856;12.088;2023-04-07T11:34:37;5.30;;;4.80;;
11173;SDS011;5643;50.856;12.088;2023-04-07T11:37:20;5.20;;;4.70;;
11173;SDS011;5643;50.856;12.088;2023-04-07T11:39:50;5.57;;;5.07;;
11173;SDS011;5643;50.856;12.088;2023-04-07T11:42:30;6.30;;;5.70;;
11173;SDS011;5643;50.856;12.088;2023-04-07T11:44:57;5.90;;;5.30;;
11173;SDS011;5643;50.856;12.088;2023-04-07T11:47:33;5.83;;;5.23;;
11173;SDS011;5643;50.856;12.088;2023-04-07T11:50:00;6.93;;;6.23;;
11173;SDS011;5643;50.856;12.088;2023-04-07T11:52:30;6.53;;;6.00;;
11173;SDS011;5643;50.856;12.088;2023-04-07T11:55:06;7.23;;;6.63;;
11173;SDS011;5643;50.856;12.088;2023-04-07T11:57:42;7.00;;;6.40;;
11173;SDS011;5643;50.856;12.088;2023-04-07T12:00:11;6.10;;;5.50;;
11173;SDS011;5643;50.856;12.088;2023-04-07T12:02:42;5.90;;;5.40;;
11173;SDS011;5643;50.856;12.088;2023-04-07T12:05:09;6.67;;;6.07;;
11173;SDS011;5643;50.856;12.088;2023-04-07T12:07:38;5.80;;;5.30;;
11173;SDS011;5643;50.856;12.088;2023-04-07T12:10:19;6.73;;;6.03;;
11173;SDS011;5643;50.856;12.088;2023-04-07T12:12:47;5.90;;;5.40;;
11173;SDS011;5643;50.856;12.088;2023-04-07T12:15:14;5.93;;;5.43;;
11173;SDS011;5643;50.856;12.088;2023-04-07T12:17:43;6.03;;;5.43;;
11173;SDS011;5643;50.856;12.088;2023-04-07T15:23:05;8.17;;;7.47;;
11173;SDS011;5643;50.856;12.088;2023-04-07T15:25:33;8.47;;;7.67;;
11173;SDS011;5643;50.856;12.088;2023-04-07T15:28:00;6.80;;;6.20;;
11173;SDS011;5643;50.856;12.088;2023-04-07T15:30:28;7.83;;;7.13;;
11173;SDS011;5643;50.856;12.088;2023-04-07T15:32:58;7.30;;;6.70;;
11173;SDS011;5643;50.856;12.088;2023-04-07T15:35:26;7.53;;;6.83;;
11173;SDS011;5643;50.856;12.088;2023-04-07T15:37:53;7.40;;;6.70;;
11173;SDS011;5643;50.856;12.088;2023-04-07T15:40:22;7.47;;;6.80;;
11173;SDS011;5643;50.856;12.088;2023-04-07T15:42:49;7.20;;;6.50;;
11173;SDS011;5643;50.856;12.088;2023-04-07T15:45:16;8.10;;;7.30;;
11173;SDS011;5643;50.856;12.088;2023-04-07T15:47:44;7.30;;;6.17;;
11173;SDS011;5643;50.856;12.088;2023-04-07T15:50:11;6.30;;;5.70;;
11173;SDS011;5643;50.856;12.088;2023-04-07T15:52:38;5.80;;;5.30;;
11173;SDS011;5643;50.856;12.088;2023-04-07T15:55:06;8.03;;;7.23;;
11173;SDS011;5643;50.856;12.088;2023-04-07T15:57:34;7.13;;;6.47;;
11173;SDS011;5643;50.856;12.088;2023-04-07T16:00:02;6.93;;;6.33;;
11173;SDS011;5643;50.856;12.088;2023-04-07T16:02:29;8.00;;;7.20;;
11173;SDS011;5643;50.856;12.088;2023-04-07T16:04:56;6.80;;;6.10;;
11173;SDS011;5643;50.856;12.088;2023-04-07T16:07:24;6.70;;;6.10;;
11173;SDS011;5643;50.856;12.088;2023-04-07T16:09:51;7.27;;;6.50;;
11173;SDS011;5643;50.856;12.088;2023-04-07T16:12:18;7.10;;;6.40;;
11173;SDS011;5643;50.856;12.088;2023-04-07T16:14:48;7.20;;;6.50;;
11173;SDS011;5643;50.856;12.088;2023-04-07T16:17:15;6.93;;;6.13;;
11173;SDS011;5643;50.856;12.088;2023-04-07T16:19:42;7.30;;;6.60;;
11173;SDS011;5643;50.856;12.088;2023-04-07T16:22:10;7.73;;;6.93;;
11173;SDS011;5643;50.856;12.088;2023-04-07T16:24:37;7.80;;;7.00;;
11173;SDS011;5643;50.856;12.088;2023-04-07T16:27:04;7.57;;;6.50;;
11173;SDS011;5643;50.856;12.088;2023-04-07T16:29:32;7.57;;;6.77;;
11173;SDS011;5643;50.856;12.088;2023-04-07T16:32:00;7.30;;;6.60;;
11173;SDS011;5643;50.856;12.088;2023-04-07T16:34:28;7.43;;;6.73;;
11173;SDS011;5643;50.856;12.088;2023-04-07T16:36:56;7.57;;;6.87;;
11173;SDS011;5643;50.856;12.088;2023-04-07T16:39:23;6.80;;;6.20;;
11173;SDS011;5643;50.856;12.088;2023-04-07T16:41:50;7.07;;;6.47;;
11173;SDS011;5643;50.856;12.088;2023-04-07T16:44:18;7.03;;;6.43;;
11173;SDS011;5643;50.856;12.088;2023-04-07T16:46:47;7.63;;;6.93;;
11173;SDS011;5643;50.856;12.088;2023-04-07T16:49:16;6.67;;;5.97;;
11173;SDS011;5643;50.856;12.088;2023-04-07T16:51:43;6.77;;;6.07;;
11173;SDS011;5643;50.856;12.088;2023-04-07T16:54:11;6.80;;;6.20;;
11173;SDS011;5643;50.856;12.088;2023-04-07T16:56:39;6.87;;;6.27;;
11173;SDS011;5643;50.856;12.088;2023-04-07T16:59:06;6.23;;;5.73;;
11173;SDS011;5643;50.856;12.088;2023-04-07T17:01:34;6.30;;;5.33;;
11173;SDS011;5643;50.856;12.088;2023-04-07T17:04:04;6.50;;;5.90;;
11173;SDS011;5643;50.856;12.088;2023-04-07T17:06:33;6.80;;;6.20;;
11173;SDS011;5643;50.856;12.088;2023-04-07T17:09:02;6.13;;;5.53;;
11173;SDS011;5643;50.856;12.088;2023-04-07T17:11:34;6.93;;;6.33;;
11173;SDS011;5643;50.856;12.088;2023-04-07T17:14:03;6.73;;;6.13;;
11173;SDS011;5643;50.856;12.088;2023-04-07T17:16:30;6.37;;;5.77;;
11173;SDS011;5643;50.856;12.088;2023-04-07T17:18:58;6.33;;;5.73;;
11173;SDS011;5643;50.856;12.088;2023-04-07T17:21:25;6.00;;;5.50;;
11173;SDS011;5643;50.856;12.088;2023-04-07T18:24:46;5.13;;;4.67;;
11173;SDS011;5643;50.856;12.088;2023-04-07T18:27:15;6.60;;;6.03;;
11173;SDS011;5643;50.856;12.088;2023-04-07T18:29:44;5.87;;;4.97;;
11173;SDS011;5643;50.856;12.088;2023-04-07T18:32:11;4.70;;;4.30;;
11173;SDS011;5643;50.856;12.088;2023-04-07T18:34:38;4.80;;;4.40;;
11173;SDS011;5643;50.856;12.088;2023-04-07T18:37:05;4.27;;;3.97;;
11173;SDS011;5643;50.856;12.088;2023-04-07T18:39:33;4.90;;;4.40;;
11173;SDS011;5643;50.856;12.088;2023-04-07T18:42:01;4.90;;;4.50;;
11173;SDS011;5643;50.856;12.088;2023-04-07T18:44:28;5.17;;;4.70;;
11173;SDS011;5643;50.856;12.088;2023-04-07T18:46:56;6.60;;;5.60;;
11173;SDS011;5643;50.856;12.088;2023-04-07T18:49:23;6.47;;;5.77;;
11173;SDS011;5643;50.856;12.088;2023-04-07T18:51:50;6.03;;;5.40;;
11173;SDS011;5643;50.856;12.088;2023-04-07T18:54:17;7.07;;;6.20;;
11173;SDS011;5643;50.856;12.088;2023-04-07T18:56:45;6.73;;;6.03;;
11173;SDS011;5643;50.856;12.088;2023-04-07T18:59:14;8.30;;;7.50;;
11173;SDS011;5643;50.856;12.088;2023-04-07T19:01:41;8.37;;;7.40;;
11173;SDS011;5643;50.856;12.088;2023-04-07T19:04:08;6.93;;;6.23;;
11173;SDS011;5643;50.856;12.088;2023-04-07T19:06:36;6.47;;;5.87;;
11173;SDS011;5643;50.856;12.088;2023-04-07T19:09:05;7.90;;;6.47;;
11173;SDS011;5643;50.856;12.088;2023-04-07T19:11:33;6.97;;;6.27;;
11173;SDS011;5643;50.856;12.088;2023-04-07T19:14:00;9.13;;;7.70;;
11173;SDS011;5643;50.856;12.088;2023-04-07T19:16:32;9.27;;;7.93;;
11173;SDS011;5643;50.856;12.088;2023-04-07T19:18:59;11.60;;;10.10;;
11173;SDS011;5643;50.856;12.088;2023-04-07T19:21:27;14.53;;;12.40;;
11173;SDS011;5643;50.856;12.088;2023-04-07T19:23:54;10.13;;;8.40;;
11173;SDS011;5643;50.856;12.088;2023-04-07T19:26:21;9.33;;;7.77;;
11173;SDS011;5643;50.856;12.088;2023-04-07T19:28:48;8.13;;;7.00;;
11173;SDS011;5643;50.856;12.088;2023-04-07T19:31:15;9.23;;;7.37;;
11173;SDS011;5643;50.856;12.088;2023-04-07T19:33:44;7.83;;;7.13;;
11173;SDS011;5643;50.856;12.088;2023-04-07T19:36:13;7.60;;;6.43;;
11173;SDS011;5643;50.856;12.088;2023-04-07T19:38:40;5.40;;;4.90;;
11173;SDS011;5643;50.856;12.088;2023-04-07T19:41:07;6.07;;;5.40;;
11173;SDS011;5643;50.856;12.088;2023-04-07T19:43:34;6.27;;;5.33;;
11173;SDS011;5643;50.856;12.088;2023-04-07T19:46:03;6.23;;;5.63;;
11173;SDS011;5643;50.856;12.088;2023-04-07T19:48:30;6.60;;;5.30;;
11173;SDS011;5643;50.856;12.088;2023-04-07T19:50:59;5.30;;;4.80;;
11173;SDS011;5643;50.856;12.088;2023-04-07T19:53:26;5.17;;;4.77;;
11173;SDS011;5643;50.856;12.088;2023-04-07T19:55:54;5.50;;;5.00;;
11173;SDS011;5643;50.856;12.088;2023-04-07T19:58:21;4.67;;;3.97;;
11173;SDS011;5643;50.856;12.088;2023-04-07T20:00:48;4.53;;;4.13;;
11173;SDS011;5643;50.856;12.088;2023-04-07T20:03:17;4.27;;;3.87;;
11173;SDS011;5643;50.856;12.088;2023-04-07T20:05:45;4.33;;;3.93;;
11173;SDS011;5643;50.856;12.088;2023-04-07T20:08:21;4.97;;;4.20;;
11173;SDS011;5643;50.856;12.088;2023-04-07T20:10:55;5.57;;;5.07;;
11173;SDS011;5643;50.856;12.088;2023-04-07T20:13:22;4.53;;;4.13;;
11173;SDS011;5643;50.856;12.088;2023-04-07T20:15:50;3.80;;;3.50;;
11173;SDS011;5643;50.856;12.088;2023-04-07T20:18:17;4.27;;;3.87;;
11173;SDS011;5643;50.856;12.088;2023-04-07T20:20:45;4.40;;;4.00;;
11173;SDS011;5643;50.856;12.088;2023-04-07T20:23:12;3.87;;;3.53;;
11173;SDS011;5643;50.856;12.088;2023-04-07T20:25:42;5.30;;;4.80;;
11173;SDS011;5643;50.856;12.088;2023-04-07T20:28:09;5.90;;;5.37;;
11173;SDS011;5643;50.856;12.088;2023-04-07T20:30:36;4.90;;;4.50;;
11173;SDS011;5643;50.856;12.088;2023-04-07T20:33:04;4.90;;;4.50;;
11173;SDS011;5643;50.856;12.088;2023-04-07T20:35:32;4.10;;;3.80;;
11173;SDS011;5643;50.856;12.088;2023-04-07T20:38:00;5.20;;;4.23;;
11173;SDS011;5643;50.856;12.088;2023-04-07T20:40:27;3.87;;;3.57;;
11173;SDS011;5643;50.856;12.088;2023-04-07T20:42:56;4.33;;;3.50;;
11173;SDS011;5643;50.856;12.088;2023-04-07T20:45:24;3.87;;;3.57;;
11173;SDS011;5643;50.856;12.088;2023-04-07T20:47:52;3.60;;;3.27;;
11173;SDS011;5643;50.856;12.088;2023-04-07T20:50:19;3.53;;;3.23;;
11173;SDS011;5643;50.856;12.088;2023-04-07T20:52:46;4.00;;;3.60;;
11173;SDS011;5643;50.856;12.088;2023-04-07T20:55:14;3.17;;;2.90;;
11173;SDS011;5643;50.856;12.088;2023-04-07T20:57:41;2.90;;;2.57;;
11173;SDS011;5643;50.856;12.088;2023-04-07T21:00:10;2.83;;;2.63;;
11173;SDS011;5643;50.856;12.088;2023-04-07T21:02:37;3.87;;;3.33;;
11173;SDS011;5643;50.856;12.088;2023-04-07T21:05:04;4.10;;;3.70;;
11173;SDS011;5643;50.856;12.088;2023-04-07T21:07:32;3.50;;;3.10;;
11173;SDS011;5643;50.856;12.088;2023-04-07T21:10:00;3.37;;;3.07;;
11173;SDS011;5643;50.856;12.088;2023-04-07T21:12:28;3.13;;;2.83;;
11173;SDS011;5643;50.856;12.088;2023-04-07T21:14:55;2.63;;;2.43;;
11173;SDS011;5643;50.856;12.088;2023-04-07T21:17:24;2.87;;;2.50;;
11173;SDS011;5643;50.856;12.088;2023-04-07T21:19:51;2.23;;;2.03;;
11173;SDS011;5643;50.856;12.088;2023-04-07T21:22:18;2.57;;;2.37;;
11173;SDS011;5643;50.856;12.088;2023-04-07T22:25:31;3.57;;;3.27;;
11173;SDS011;5643;50.856;12.088;2023-04-07T22:27:59;3.77;;;3.47;;
11173;SDS011;5643;50.856;12.088;2023-04-07T22:30:26;4.40;;;4.00;;
11173;SDS011;5643;50.856;12.088;2023-04-07T22:32:53;4.00;;;3.60;;
11173;SDS011;5643;50.856;12.088;2023-04-07T22:35:20;4.37;;;3.97;;
11173;SDS011;5643;50.856;12.088;2023-04-07T22:37:47;4.30;;;4.00;;
11173;SDS011;5643;50.856;12.088;2023-04-07T22:40:14;4.43;;;4.03;;
11173;SDS011;5643;50.856;12.088;2023-04-07T22:42:43;3.87;;;3.57;;
11173;SDS011;5643;50.856;12.088;2023-04-07T22:45:10;4.20;;;3.83;;
11173;SDS011;5643;50.856;12.088;2023-04-07T22:47:37;4.50;;;4.07;;
11173;SDS011;5643;50.856;12.088;2023-04-07T22:50:05;5.27;;;4.87;;
11173;SDS011;5643;50.856;12.088;2023-04-07T22:52:32;5.40;;;5.00;;
11173;SDS011;5643;50.856;12.088;2023-04-07T22:54:59;5.63;;;5.17;;
11173;SDS011;5643;50.856;12.088;2023-04-07T22:57:26;6.57;;;6.07;;
11173;SDS011;5643;50.856;12.088;2023-04-07T22:59:57;7.57;;;6.97;;
11173;SDS011;5643;50.856;12.088;2023-04-07T23:05:13;7.50;;;6.90;;
11173;SDS011;5643;50.856;12.088;2023-04-07T23:07:40;7.70;;;7.10;;
11173;SDS011;5643;50.856;12.088;2023-04-07T23:10:08;7.40;;;6.80;;
11173;SDS011;5643;50.856;12.088;2023-04-07T23:12:35;8.33;;;7.63;;
11173;SDS011;5643;50.856;12.088;2023-04-07T23:15:04;7.97;;;7.27;;
11173;SDS011;5643;50.856;12.088;2023-04-07T23:17:32;8.63;;;8.00;;
11173;SDS011;5643;50.856;12.088;2023-04-07T23:19:59;8.63;;;7.93;;
11173;SDS011;5643;50.856;12.088;2023-04-07T23:22:26;8.37;;;7.60;;
